BBC Delaware — V2CN9 — position and weather

sailwx.info

Track history (hours):
 
Tides and Currents Weather Stations Pressure Air Temp Water Temp Dewpoint Dewpoint Depression Visibility Wind Speed Wind Dir Waves Ship Positions

BBC Delaware

Last reported at 2014-Jul-16 17:31 UTC. Time now 2014-Aug-28 23:17 UTC.
Position S 34°06' E 018°03'.
Warning: this ship's position is 43 days out of date.

Length 138 m; draft 6.5 m.

Type: Cargo ship. MMSI: 305057000.

Date/timePositionNaut miles runAvg speedWind from/ knotsBaromVisibWave heightAir tempDewpointWater temp
2014-Jul-16 17:31S 34°06' E 018°03'1412.9
2014-Jul-16 16:27S 34°18' E 018°12'1112.6
2014-Jul-16 15:33S 34°28' E 018°19'1411.7
2014-Jul-16 14:23S 34°35' E 018°32'911.4
2014-Jul-16 13:34S 34°40' E 018°42'  
2014-Jul-14 00:33S 30°17' E 031°01'1111.1
2014-Jul-13 23:33S 30°08' E 031°08'1111.1
2014-Jul-13 22:33S 29°59' E 031°15'1211.7
2014-Jul-13 21:33S 29°50' E 031°24'1211.6
2014-Jul-13 20:33S 29°40' E 031°31'1111.5
2014-Jul-13 19:33S 29°31' E 031°39'8 7.3
2014-Jul-13 18:28S 29°24' E 031°44'3611.3
2014-Jul-13 15:19S 28°56' E 032°09'10 9.5
2014-Jul-13 14:15S 28°48' E 032°02'0 0.1
2014-Jul-13 11:28S 28°48' E 032°02'  
Track history (hours):
 
Tides and Currents Weather Stations Pressure Air Temp Water Temp Dewpoint Dewpoint Depression Visibility Wind Speed Wind Dir Waves Ship Positions

BBC Delaware

Last reported at 2014-Jul-16 17:31 UTC. Time now 2014-Aug-28 23:17 UTC.
Position S 34°06' E 018°03'.
Warning: this ship's position is 43 days out of date.

Length 138 m; draft 6.5 m.

Type: Cargo ship. MMSI: 305057000.

Date/timePositionNaut miles runAvg speedWind from/ knotsBaromVisibWave heightAir tempDewpointWater temp
2014-Jul-16 17:31S 34°06' E 018°03'1412.9
2014-Jul-16 16:27S 34°18' E 018°12'1112.6
2014-Jul-16 15:33S 34°28' E 018°19'1411.7
2014-Jul-16 14:23S 34°35' E 018°32'911.4
2014-Jul-16 13:34S 34°40' E 018°42'  
2014-Jul-14 00:33S 30°17' E 031°01'1111.1
2014-Jul-13 23:33S 30°08' E 031°08'1111.1
2014-Jul-13 22:33S 29°59' E 031°15'1211.7
2014-Jul-13 21:33S 29°50' E 031°24'1211.6
2014-Jul-13 20:33S 29°40' E 031°31'1111.5
2014-Jul-13 19:33S 29°31' E 031°39'8 7.3
2014-Jul-13 18:28S 29°24' E 031°44'3611.3
2014-Jul-13 15:19S 28°56' E 032°09'10 9.5
2014-Jul-13 14:15S 28°48' E 032°02'0 0.1
2014-Jul-13 11:28S 28°48' E 032°02'  

Dump ship's entire track history